sensor_id;sensor_type;location;lat;lon;timestamp;temperature;humidity
16655;DHT22;8441;51.344;7.022;2023-09-19T00:00:17;14.50;99.90
16655;DHT22;8441;51.344;7.022;2023-09-19T00:02:46;14.40;99.90
16655;DHT22;8441;51.344;7.022;2023-09-19T00:05:14;14.40;99.90
16655;DHT22;8441;51.344;7.022;2023-09-19T00:07:42;14.40;99.90
16655;DHT22;8441;51.344;7.022;2023-09-19T00:10:10;14.40;99.90
16655;DHT22;8441;51.344;7.022;2023-09-19T00:12:42;14.50;99.90
16655;DHT22;8441;51.344;7.022;2023-09-19T00:15:11;14.40;99.90
16655;DHT22;8441;51.344;7.022;2023-09-19T00:17:38;14.40;99.90
16655;DHT22;8441;51.344;7.022;2023-09-19T00:20:07;14.30;99.90
16655;DHT22;8441;51.344;7.022;2023-09-19T00:22:39;14.30;99.90
16655;DHT22;8441;51.344;7.022;2023-09-19T00:25:07;14.30;99.90
16655;DHT22;8441;51.344;7.022;2023-09-19T00:27:35;14.30;99.90
16655;DHT22;8441;51.344;7.022;2023-09-19T00:30:06;14.20;99.90
16655;DHT22;8441;51.344;7.022;2023-09-19T00:32:36;14.20;99.90
16655;DHT22;8441;51.344;7.022;2023-09-19T00:35:04;14.20;99.90
16655;DHT22;8441;51.344;7.022;2023-09-19T00:37:31;14.20;99.90
16655;DHT22;8441;51.344;7.022;2023-09-19T00:39:59;14.20;99.90
16655;DHT22;8441;51.344;7.022;2023-09-19T00:42:26;14.20;99.90
16655;DHT22;8441;51.344;7.022;2023-09-19T00:44:54;14.20;99.90
16655;DHT22;8441;51.344;7.022;2023-09-19T00:47:21;14.10;99.90
16655;DHT22;8441;51.344;7.022;2023-09-19T00:49:50;14.10;99.90
16655;DHT22;8441;51.344;7.022;2023-09-19T00:52:18;14.20;99.90
16655;DHT22;8441;51.344;7.022;2023-09-19T00:54:46;14.10;99.90
16655;DHT22;8441;51.344;7.022;2023-09-19T00:57:14;14.10;99.90
16655;DHT22;8441;51.344;7.022;2023-09-19T00:59:43;14.10;99.90
16655;DHT22;8441;51.344;7.022;2023-09-19T01:02:10;14.00;99.90
16655;DHT22;8441;51.344;7.022;2023-09-19T01:04:40;14.10;99.90
16655;DHT22;8441;51.344;7.022;2023-09-19T01:07:09;14.00;99.90
16655;DHT22;8441;51.344;7.022;2023-09-19T01:09:37;14.00;99.90
16655;DHT22;8441;51.344;7.022;2023-09-19T01:12:06;14.00;99.90
16655;DHT22;8441;51.344;7.022;2023-09-19T01:14:41;14.00;99.90
16655;DHT22;8441;51.344;7.022;2023-09-19T01:17:16;14.00;99.90
16655;DHT22;8441;51.344;7.022;2023-09-19T01:20:08;14.00;99.90
16655;DHT22;8441;51.344;7.022;2023-09-19T01:22:48;14.00;99.90
16655;DHT22;8441;51.344;7.022;2023-09-19T01:28:30;13.90;99.90
16655;DHT22;8441;51.344;7.022;2023-09-19T01:31:04;13.90;99.90
16655;DHT22;8441;51.344;7.022;2023-09-19T01:33:56;13.90;99.90
16655;DHT22;8441;51.344;7.022;2023-09-19T01:36:26;13.80;99.90
16655;DHT22;8441;51.344;7.022;2023-09-19T01:38:56;13.80;99.90
16655;DHT22;8441;51.344;7.022;2023-09-19T01:41:29;13.80;99.90
16655;DHT22;8441;51.344;7.022;2023-09-19T01:43:59;13.80;99.90
16655;DHT22;8441;51.344;7.022;2023-09-19T01:46:34;13.80;99.90
16655;DHT22;8441;51.344;7.022;2023-09-19T01:49:15;13.80;99.90
16655;DHT22;8441;51.344;7.022;2023-09-19T01:51:51;13.80;99.90
16655;DHT22;8441;51.344;7.022;2023-09-19T01:54:26;13.70;99.90
16655;DHT22;8441;51.344;7.022;2023-09-19T01:56:58;13.70;99.90
16655;DHT22;8441;51.344;7.022;2023-09-19T01:59:34;13.70;99.90
16655;DHT22;8441;51.344;7.022;2023-09-19T02:02:04;13.70;99.90
16655;DHT22;8441;51.344;7.022;2023-09-19T02:04:33;13.70;99.90
16655;DHT22;8441;51.344;7.022;2023-09-19T02:07:00;13.70;99.90
16655;DHT22;8441;51.344;7.022;2023-09-19T02:09:28;13.70;99.90
16655;DHT22;8441;51.344;7.022;2023-09-19T02:11:55;13.70;99.90
16655;DHT22;8441;51.344;7.022;2023-09-19T02:14:23;13.70;99.90
16655;DHT22;8441;51.344;7.022;2023-09-19T02:16:50;13.70;99.90
16655;DHT22;8441;51.344;7.022;2023-09-19T02:19:19;13.70;99.90
16655;DHT22;8441;51.344;7.022;2023-09-19T02:21:46;13.70;99.90
16655;DHT22;8441;51.344;7.022;2023-09-19T02:24:14;13.70;99.90
16655;DHT22;8441;51.344;7.022;2023-09-19T02:26:42;13.70;99.90
16655;DHT22;8441;51.344;7.022;2023-09-19T02:29:10;13.60;99.90
16655;DHT22;8441;51.344;7.022;2023-09-19T02:31:38;13.70;99.90
16655;DHT22;8441;51.344;7.022;2023-09-19T02:34:10;13.70;99.90
16655;DHT22;8441;51.344;7.022;2023-09-19T02:36:38;13.70;99.90
16655;DHT22;8441;51.344;7.022;2023-09-19T02:39:06;13.70;99.90
16655;DHT22;8441;51.344;7.022;2023-09-19T02:41:34;13.70;99.90
16655;DHT22;8441;51.344;7.022;2023-09-19T02:44:01;13.70;99.90
16655;DHT22;8441;51.344;7.022;2023-09-19T02:46:28;13.60;99.90
16655;DHT22;8441;51.344;7.022;2023-09-19T02:48:56;13.60;99.90
16655;DHT22;8441;51.344;7.022;2023-09-19T02:51:23;13.60;99.90
16655;DHT22;8441;51.344;7.022;2023-09-19T02:53:52;13.60;99.90
16655;DHT22;8441;51.344;7.022;2023-09-19T02:56:20;13.60;99.90
16655;DHT22;8441;51.344;7.022;2023-09-19T02:58:48;13.50;99.90
16655;DHT22;8441;51.344;7.022;2023-09-19T03:01:15;13.50;99.90
16655;DHT22;8441;51.344;7.022;2023-09-19T03:03:44;13.50;99.90
16655;DHT22;8441;51.344;7.022;2023-09-19T03:06:11;13.50;99.90
16655;DHT22;8441;51.344;7.022;2023-09-19T03:08:39;13.50;99.90
16655;DHT22;8441;51.344;7.022;2023-09-19T03:11:24;13.50;99.90
16655;DHT22;8441;51.344;7.022;2023-09-19T03:13:52;13.40;99.90
16655;DHT22;8441;51.344;7.022;2023-09-19T03:16:19;13.40;99.90
16655;DHT22;8441;51.344;7.022;2023-09-19T03:18:47;13.40;99.90
16655;DHT22;8441;51.344;7.022;2023-09-19T03:21:15;13.40;99.90
16655;DHT22;8441;51.344;7.022;2023-09-19T03:23:54;13.30;99.90
16655;DHT22;8441;51.344;7.022;2023-09-19T03:26:21;13.30;99.90
16655;DHT22;8441;51.344;7.022;2023-09-19T03:28:50;13.30;99.90
16655;DHT22;8441;51.344;7.022;2023-09-19T03:31:18;13.30;99.90
16655;DHT22;8441;51.344;7.022;2023-09-19T03:33:45;13.30;99.90
16655;DHT22;8441;51.344;7.022;2023-09-19T03:36:12;13.30;99.90
16655;DHT22;8441;51.344;7.022;2023-09-19T03:38:40;13.30;99.90
16655;DHT22;8441;51.344;7.022;2023-09-19T03:41:07;13.20;99.90
16655;DHT22;8441;51.344;7.022;2023-09-19T03:43:35;13.20;99.90
16655;DHT22;8441;51.344;7.022;2023-09-19T03:46:03;13.20;99.90
16655;DHT22;8441;51.344;7.022;2023-09-19T03:48:31;13.20;99.90
16655;DHT22;8441;51.344;7.022;2023-09-19T03:50:59;13.10;99.90
16655;DHT22;8441;51.344;7.022;2023-09-19T03:53:26;13.10;99.90
16655;DHT22;8441;51.344;7.022;2023-09-19T03:55:53;13.10;99.90
16655;DHT22;8441;51.344;7.022;2023-09-19T03:58:20;13.00;99.90
16655;DHT22;8441;51.344;7.022;2023-09-19T04:00:48;13.10;99.90
16655;DHT22;8441;51.344;7.022;2023-09-19T04:03:17;13.00;99.90
16655;DHT22;8441;51.344;7.022;2023-09-19T04:05:46;13.10;99.90
16655;DHT22;8441;51.344;7.022;2023-09-19T04:08:14;13.00;99.90
16655;DHT22;8441;51.344;7.022;2023-09-19T04:10:42;13.00;99.90
16655;DHT22;8441;51.344;7.022;2023-09-19T04:13:11;13.00;99.90
16655;DHT22;8441;51.344;7.022;2023-09-19T04:15:38;13.00;99.90
16655;DHT22;8441;51.344;7.022;2023-09-19T04:18:06;13.00;99.90
16655;DHT22;8441;51.344;7.022;2023-09-19T04:20:34;13.00;99.90
16655;DHT22;8441;51.344;7.022;2023-09-19T04:23:02;13.00;99.90
16655;DHT22;8441;51.344;7.022;2023-09-19T04:25:30;13.00;99.90
16655;DHT22;8441;51.344;7.022;2023-09-19T04:27:57;13.00;99.90
16655;DHT22;8441;51.344;7.022;2023-09-19T04:30:25;12.90;99.90
16655;DHT22;8441;51.344;7.022;2023-09-19T04:32:52;13.00;99.90
16655;DHT22;8441;51.344;7.022;2023-09-19T04:35:19;12.90;99.90
16655;DHT22;8441;51.344;7.022;2023-09-19T04:37:48;12.90;99.90
16655;DHT22;8441;51.344;7.022;2023-09-19T04:40:17;12.90;99.90
16655;DHT22;8441;51.344;7.022;2023-09-19T04:42:45;12.90;99.90
16655;DHT22;8441;51.344;7.022;2023-09-19T04:45:13;13.00;99.90
16655;DHT22;8441;51.344;7.022;2023-09-19T04:47:41;13.00;99.90
16655;DHT22;8441;51.344;7.022;2023-09-19T04:50:09;12.90;99.90
16655;DHT22;8441;51.344;7.022;2023-09-19T04:52:40;12.90;99.90
16655;DHT22;8441;51.344;7.022;2023-09-19T04:55:12;12.90;99.90
16655;DHT22;8441;51.344;7.022;2023-09-19T04:57:42;12.90;99.90
16655;DHT22;8441;51.344;7.022;2023-09-19T05:00:12;12.90;99.90
16655;DHT22;8441;51.344;7.022;2023-09-19T05:02:40;12.90;99.90
16655;DHT22;8441;51.344;7.022;2023-09-19T05:05:09;12.90;99.90
16655;DHT22;8441;51.344;7.022;2023-09-19T05:07:38;12.90;99.90
16655;DHT22;8441;51.344;7.022;2023-09-19T05:10:07;12.90;99.90
16655;DHT22;8441;51.344;7.022;2023-09-19T05:12:36;12.90;99.90
16655;DHT22;8441;51.344;7.022;2023-09-19T05:15:03;12.90;99.90
16655;DHT22;8441;51.344;7.022;2023-09-19T05:17:33;12.90;99.90
16655;DHT22;8441;51.344;7.022;2023-09-19T05:20:00;13.00;99.90
16655;DHT22;8441;51.344;7.022;2023-09-19T05:22:31;12.90;99.90
16655;DHT22;8441;51.344;7.022;2023-09-19T05:24:59;12.90;99.90
16655;DHT22;8441;51.344;7.022;2023-09-19T05:27:30;12.90;99.90
16655;DHT22;8441;51.344;7.022;2023-09-19T05:29:59;13.00;99.90
16655;DHT22;8441;51.344;7.022;2023-09-19T05:32:26;13.00;99.90
16655;DHT22;8441;51.344;7.022;2023-09-19T05:34:53;13.00;99.90
16655;DHT22;8441;51.344;7.022;2023-09-19T05:37:22;13.10;99.90
16655;DHT22;8441;51.344;7.022;2023-09-19T05:39:49;13.20;99.90
16655;DHT22;8441;51.344;7.022;2023-09-19T05:42:16;13.20;99.90
16655;DHT22;8441;51.344;7.022;2023-09-19T05:44:44;13.30;99.90
16655;DHT22;8441;51.344;7.022;2023-09-19T05:47:12;13.30;99.90
16655;DHT22;8441;51.344;7.022;2023-09-19T05:49:39;13.40;99.90
16655;DHT22;8441;51.344;7.022;2023-09-19T05:52:06;13.50;99.90
16655;DHT22;8441;51.344;7.022;2023-09-19T05:54:33;13.60;99.90
16655;DHT22;8441;51.344;7.022;2023-09-19T05:57:01;13.60;99.90
16655;DHT22;8441;51.344;7.022;2023-09-19T05:59:28;13.60;99.90
16655;DHT22;8441;51.344;7.022;2023-09-19T06:01:55;13.70;99.90
16655;DHT22;8441;51.344;7.022;2023-09-19T06:04:24;13.70;99.90
16655;DHT22;8441;51.344;7.022;2023-09-19T06:06:51;13.80;99.90
16655;DHT22;8441;51.344;7.022;2023-09-19T06:09:18;13.80;99.90
16655;DHT22;8441;51.344;7.022;2023-09-19T06:11:47;13.80;99.90
16655;DHT22;8441;51.344;7.022;2023-09-19T06:14:14;13.90;99.90
16655;DHT22;8441;51.344;7.022;2023-09-19T06:16:43;13.90;99.90
16655;DHT22;8441;51.344;7.022;2023-09-19T06:19:11;13.90;99.90
16655;DHT22;8441;51.344;7.022;2023-09-19T06:21:39;14.00;99.90
16655;DHT22;8441;51.344;7.022;2023-09-19T06:24:07;14.00;99.90
16655;DHT22;8441;51.344;7.022;2023-09-19T06:26:34;14.00;99.90
16655;DHT22;8441;51.344;7.022;2023-09-19T06:29:01;14.00;99.90
16655;DHT22;8441;51.344;7.022;2023-09-19T06:31:33;14.00;99.90
16655;DHT22;8441;51.344;7.022;2023-09-19T06:34:00;14.10;99.90
16655;DHT22;8441;51.344;7.022;2023-09-19T06:36:29;14.10;99.90
16655;DHT22;8441;51.344;7.022;2023-09-19T06:38:57;14.10;99.90
16655;DHT22;8441;51.344;7.022;2023-09-19T06:41:25;14.10;99.90
16655;DHT22;8441;51.344;7.022;2023-09-19T06:43:52;14.10;99.90
16655;DHT22;8441;51.344;7.022;2023-09-19T06:46:19;14.20;99.90
16655;DHT22;8441;51.344;7.022;2023-09-19T06:48:47;14.30;99.90
16655;DHT22;8441;51.344;7.022;2023-09-19T06:51:14;14.30;99.90
16655;DHT22;8441;51.344;7.022;2023-09-19T06:53:42;14.40;99.90
16655;DHT22;8441;51.344;7.022;2023-09-19T06:56:11;14.40;99.90
16655;DHT22;8441;51.344;7.022;2023-09-19T06:58:38;14.50;99.90
16655;DHT22;8441;51.344;7.022;2023-09-19T07:01:05;14.60;99.90
16655;DHT22;8441;51.344;7.022;2023-09-19T07:03:32;14.60;99.90
16655;DHT22;8441;51.344;7.022;2023-09-19T07:06:00;14.60;99.90
16655;DHT22;8441;51.344;7.022;2023-09-19T07:08:30;14.70;99.90
16655;DHT22;8441;51.344;7.022;2023-09-19T07:10:57;14.70;99.90
16655;DHT22;8441;51.344;7.022;2023-09-19T07:13:25;14.80;99.90
16655;DHT22;8441;51.344;7.022;2023-09-19T07:15:53;14.80;99.90
16655;DHT22;8441;51.344;7.022;2023-09-19T07:18:20;14.90;99.90
16655;DHT22;8441;51.344;7.022;2023-09-19T07:20:48;14.80;99.90
16655;DHT22;8441;51.344;7.022;2023-09-19T07:23:16;14.90;99.90
16655;DHT22;8441;51.344;7.022;2023-09-19T07:25:44;14.90;99.90
16655;DHT22;8441;51.344;7.022;2023-09-19T07:28:12;14.90;99.90
16655;DHT22;8441;51.344;7.022;2023-09-19T07:30:41;15.00;99.90
16655;DHT22;8441;51.344;7.022;2023-09-19T07:33:08;15.10;99.90
16655;DHT22;8441;51.344;7.022;2023-09-19T07:35:37;15.10;99.90
16655;DHT22;8441;51.344;7.022;2023-09-19T07:38:06;15.20;99.90
16655;DHT22;8441;51.344;7.022;2023-09-19T07:40:34;15.20;99.90
16655;DHT22;8441;51.344;7.022;2023-09-19T07:43:02;15.30;99.90
16655;DHT22;8441;51.344;7.022;2023-09-19T07:45:30;15.40;99.90
16655;DHT22;8441;51.344;7.022;2023-09-19T07:47:59;15.40;99.90
16655;DHT22;8441;51.344;7.022;2023-09-19T07:50:30;15.50;99.90
16655;DHT22;8441;51.344;7.022;2023-09-19T07:52:57;15.50;99.90
16655;DHT22;8441;51.344;7.022;2023-09-19T07:55:24;15.50;99.90
16655;DHT22;8441;51.344;7.022;2023-09-19T07:57:52;15.60;99.90
16655;DHT22;8441;51.344;7.022;2023-09-19T08:00:19;15.50;99.90
16655;DHT22;8441;51.344;7.022;2023-09-19T08:02:46;15.60;99.90
16655;DHT22;8441;51.344;7.022;2023-09-19T08:05:15;15.70;99.90
16655;DHT22;8441;51.344;7.022;2023-09-19T08:07:45;15.70;99.90
16655;DHT22;8441;51.344;7.022;2023-09-19T08:10:15;15.70;99.90
16655;DHT22;8441;51.344;7.022;2023-09-19T08:12:46;15.70;99.90
16655;DHT22;8441;51.344;7.022;2023-09-19T08:15:14;15.80;99.90
16655;DHT22;8441;51.344;7.022;2023-09-19T08:17:41;15.90;99.90
16655;DHT22;8441;51.344;7.022;2023-09-19T08:20:09;15.90;99.90
16655;DHT22;8441;51.344;7.022;2023-09-19T08:22:46;15.90;99.90
16655;DHT22;8441;51.344;7.022;2023-09-19T08:25:14;16.00;99.90
16655;DHT22;8441;51.344;7.022;2023-09-19T08:27:43;16.00;99.90
16655;DHT22;8441;51.344;7.022;2023-09-19T08:30:13;16.00;99.90
16655;DHT22;8441;51.344;7.022;2023-09-19T08:32:41;16.00;99.90
16655;DHT22;8441;51.344;7.022;2023-09-19T08:35:09;16.10;99.90
16655;DHT22;8441;51.344;7.022;2023-09-19T08:37:36;16.10;99.90
16655;DHT22;8441;51.344;7.022;2023-09-19T08:40:06;16.00;99.90
16655;DHT22;8441;51.344;7.022;2023-09-19T08:42:47;16.00;99.90
16655;DHT22;8441;51.344;7.022;2023-09-19T08:45:15;15.90;99.90
16655;DHT22;8441;51.344;7.022;2023-09-19T08:47:46;16.10;99.90
16655;DHT22;8441;51.344;7.022;2023-09-19T08:50:19;16.30;99.90
16655;DHT22;8441;51.344;7.022;2023-09-19T08:52:51;16.30;99.90
16655;DHT22;8441;51.344;7.022;2023-09-19T08:55:26;16.40;99.90
16655;DHT22;8441;51.344;7.022;2023-09-19T08:58:00;16.50;99.90
16655;DHT22;8441;51.344;7.022;2023-09-19T09:00:28;16.60;99.90
16655;DHT22;8441;51.344;7.022;2023-09-19T09:02:56;16.60;99.90
16655;DHT22;8441;51.344;7.022;2023-09-19T09:05:24;16.60;99.90
16655;DHT22;8441;51.344;7.022;2023-09-19T09:07:52;16.60;99.90
16655;DHT22;8441;51.344;7.022;2023-09-19T09:10:23;16.70;99.90
16655;DHT22;8441;51.344;7.022;2023-09-19T09:12:52;16.80;99.90
16655;DHT22;8441;51.344;7.022;2023-09-19T09:15:21;16.90;99.90
16655;DHT22;8441;51.344;7.022;2023-09-19T09:17:49;17.00;99.90
16655;DHT22;8441;51.344;7.022;2023-09-19T09:20:19;17.00;99.90
16655;DHT22;8441;51.344;7.022;2023-09-19T09:22:52;17.10;99.90
16655;DHT22;8441;51.344;7.022;2023-09-19T09:25:20;17.10;99.90
16655;DHT22;8441;51.344;7.022;2023-09-19T09:28:00;17.10;99.90
16655;DHT22;8441;51.344;7.022;2023-09-19T09:30:34;17.20;99.90
16655;DHT22;8441;51.344;7.022;2023-09-19T09:33:09;17.40;99.90
16655;DHT22;8441;51.344;7.022;2023-09-19T09:35:37;17.50;99.90
16655;DHT22;8441;51.344;7.022;2023-09-19T09:38:07;17.70;99.90
16655;DHT22;8441;51.344;7.022;2023-09-19T09:40:51;17.60;99.90
16655;DHT22;8441;51.344;7.022;2023-09-19T09:43:31;17.60;99.90
16655;DHT22;8441;51.344;7.022;2023-09-19T09:46:12;17.60;99.90
16655;DHT22;8441;51.344;7.022;2023-09-19T09:48:57;17.60;99.90
16655;DHT22;8441;51.344;7.022;2023-09-19T09:51:51;17.60;99.90
16655;DHT22;8441;51.344;7.022;2023-09-19T09:54:26;17.80;99.90
16655;DHT22;8441;51.344;7.022;2023-09-19T09:57:00;17.70;99.90
16655;DHT22;8441;51.344;7.022;2023-09-19T09:59:47;17.70;99.90
16655;DHT22;8441;51.344;7.022;2023-09-19T10:02:15;17.70;99.90
16655;DHT22;8441;51.344;7.022;2023-09-19T10:04:50;17.90;99.90
16655;DHT22;8441;51.344;7.022;2023-09-19T10:07:30;17.90;99.90
16655;DHT22;8441;51.344;7.022;2023-09-19T10:10:02;17.90;99.90
16655;DHT22;8441;51.344;7.022;2023-09-19T10:12:55;18.10;99.90
16655;DHT22;8441;51.344;7.022;2023-09-19T10:15:32;18.30;99.90
16655;DHT22;8441;51.344;7.022;2023-09-19T10:18:01;18.10;99.90
16655;DHT22;8441;51.344;7.022;2023-09-19T10:20:28;18.10;99.90
16655;DHT22;8441;51.344;7.022;2023-09-19T10:23:08;18.10;99.90
16655;DHT22;8441;51.344;7.022;2023-09-19T10:25:38;18.10;99.90
16655;DHT22;8441;51.344;7.022;2023-09-19T10:28:06;18.30;99.90
16655;DHT22;8441;51.344;7.022;2023-09-19T10:30:38;18.60;99.90
16655;DHT22;8441;51.344;7.022;2023-09-19T10:33:10;18.80;99.90
16655;DHT22;8441;51.344;7.022;2023-09-19T10:35:39;18.90;99.90
16655;DHT22;8441;51.344;7.022;2023-09-19T10:38:13;18.90;99.90
16655;DHT22;8441;51.344;7.022;2023-09-19T10:40:40;18.70;99.90
16655;DHT22;8441;51.344;7.022;2023-09-19T10:43:12;18.70;99.90
16655;DHT22;8441;51.344;7.022;2023-09-19T10:45:41;18.80;99.90
16655;DHT22;8441;51.344;7.022;2023-09-19T10:48:10;19.10;99.90
16655;DHT22;8441;51.344;7.022;2023-09-19T10:50:45;19.10;99.90
16655;DHT22;8441;51.344;7.022;2023-09-19T10:53:15;19.00;99.90
16655;DHT22;8441;51.344;7.022;2023-09-19T10:55:49;18.90;99.90
16655;DHT22;8441;51.344;7.022;2023-09-19T10:58:29;18.90;99.90
16655;DHT22;8441;51.344;7.022;2023-09-19T11:00:58;18.90;99.90
16655;DHT22;8441;51.344;7.022;2023-09-19T11:03:32;18.90;99.90
16655;DHT22;8441;51.344;7.022;2023-09-19T11:06:05;18.90;99.90
16655;DHT22;8441;51.344;7.022;2023-09-19T11:08:58;18.90;99.90
16655;DHT22;8441;51.344;7.022;2023-09-19T11:11:44;19.10;99.90
16655;DHT22;8441;51.344;7.022;2023-09-19T11:14:41;19.20;99.90
16655;DHT22;8441;51.344;7.022;2023-09-19T11:17:31;19.30;99.90
16655;DHT22;8441;51.344;7.022;2023-09-19T11:20:19;19.30;99.90
16655;DHT22;8441;51.344;7.022;2023-09-19T11:23:23;19.20;99.90
16655;DHT22;8441;51.344;7.022;2023-09-19T11:25:53;19.20;99.90
16655;DHT22;8441;51.344;7.022;2023-09-19T11:28:31;19.00;99.90
16655;DHT22;8441;51.344;7.022;2023-09-19T11:30:57;18.90;99.90
16655;DHT22;8441;51.344;7.022;2023-09-19T11:33:25;18.90;99.90
16655;DHT22;8441;51.344;7.022;2023-09-19T11:36:01;19.10;99.90
16655;DHT22;8441;51.344;7.022;2023-09-19T11:38:57;19.20;99.90
16655;DHT22;8441;51.344;7.022;2023-09-19T11:41:40;19.50;99.90
16655;DHT22;8441;51.344;7.022;2023-09-19T11:44:32;19.40;99.90
16655;DHT22;8441;51.344;7.022;2023-09-19T11:47:01;19.40;99.90
16655;DHT22;8441;51.344;7.022;2023-09-19T11:49:30;19.50;99.90
16655;DHT22;8441;51.344;7.022;2023-09-19T11:51:59;19.40;99.90
16655;DHT22;8441;51.344;7.022;2023-09-19T11:54:27;19.40;99.90
16655;DHT22;8441;51.344;7.022;2023-09-19T11:56:59;19.30;99.90
16655;DHT22;8441;51.344;7.022;2023-09-19T11:59:28;19.10;99.90
16655;DHT22;8441;51.344;7.022;2023-09-19T12:01:57;19.40;99.90
16655;DHT22;8441;51.344;7.022;2023-09-19T12:04:34;19.50;99.90
16655;DHT22;8441;51.344;7.022;2023-09-19T12:07:07;19.60;99.90
16655;DHT22;8441;51.344;7.022;2023-09-19T12:09:39;19.60;99.90
16655;DHT22;8441;51.344;7.022;2023-09-19T12:12:11;19.70;99.90
16655;DHT22;8441;51.344;7.022;2023-09-19T12:14:48;19.70;99.90
16655;DHT22;8441;51.344;7.022;2023-09-19T12:17:15;19.60;99.90
16655;DHT22;8441;51.344;7.022;2023-09-19T12:19:50;19.70;99.90
16655;DHT22;8441;51.344;7.022;2023-09-19T12:22:18;19.70;99.90
16655;DHT22;8441;51.344;7.022;2023-09-19T12:24:46;19.70;99.90
16655;DHT22;8441;51.344;7.022;2023-09-19T12:27:15;19.50;99.90
16655;DHT22;8441;51.344;7.022;2023-09-19T12:29:43;19.60;99.90
16655;DHT22;8441;51.344;7.022;2023-09-19T12:32:11;19.70;99.90
16655;DHT22;8441;51.344;7.022;2023-09-19T12:34:38;19.60;99.90
16655;DHT22;8441;51.344;7.022;2023-09-19T12:37:09;19.60;99.90
16655;DHT22;8441;51.344;7.022;2023-09-19T12:39:45;19.50;99.90
16655;DHT22;8441;51.344;7.022;2023-09-19T12:42:16;19.50;99.90
16655;DHT22;8441;51.344;7.022;2023-09-19T12:44:45;19.50;99.90
16655;DHT22;8441;51.344;7.022;2023-09-19T12:47:14;19.50;99.90
16655;DHT22;8441;51.344;7.022;2023-09-19T12:50:11;19.50;99.90
16655;DHT22;8441;51.344;7.022;2023-09-19T12:52:45;19.50;99.90
16655;DHT22;8441;51.344;7.022;2023-09-19T12:55:23;19.60;99.90
16655;DHT22;8441;51.344;7.022;2023-09-19T12:58:08;19.60;99.90
16655;DHT22;8441;51.344;7.022;2023-09-19T13:00:37;19.60;99.90
16655;DHT22;8441;51.344;7.022;2023-09-19T13:03:12;19.70;99.90
16655;DHT22;8441;51.344;7.022;2023-09-19T13:05:49;19.90;99.90
16655;DHT22;8441;51.344;7.022;2023-09-19T13:08:18;20.00;99.90
16655;DHT22;8441;51.344;7.022;2023-09-19T13:11:06;20.10;99.90
16655;DHT22;8441;51.344;7.022;2023-09-19T13:13:37;20.20;99.90
16655;DHT22;8441;51.344;7.022;2023-09-19T13:16:05;20.10;99.90
16655;DHT22;8441;51.344;7.022;2023-09-19T13:18:46;20.00;99.90
16655;DHT22;8441;51.344;7.022;2023-09-19T13:21:14;20.00;99.90
16655;DHT22;8441;51.344;7.022;2023-09-19T13:23:52;20.00;99.90
16655;DHT22;8441;51.344;7.022;2023-09-19T13:26:20;20.10;99.90
16655;DHT22;8441;51.344;7.022;2023-09-19T13:28:50;20.10;99.90
16655;DHT22;8441;51.344;7.022;2023-09-19T13:31:17;20.10;99.90
16655;DHT22;8441;51.344;7.022;2023-09-19T13:33:44;20.10;99.90
16655;DHT22;8441;51.344;7.022;2023-09-19T13:36:12;20.00;99.90
16655;DHT22;8441;51.344;7.022;2023-09-19T13:38:42;20.00;99.90
16655;DHT22;8441;51.344;7.022;2023-09-19T13:41:09;20.00;99.90
16655;DHT22;8441;51.344;7.022;2023-09-19T13:43:37;20.10;99.90
16655;DHT22;8441;51.344;7.022;2023-09-19T13:46:06;19.90;99.90
16655;DHT22;8441;51.344;7.022;2023-09-19T13:48:37;20.10;99.90
16655;DHT22;8441;51.344;7.022;2023-09-19T13:51:05;20.20;99.90
16655;DHT22;8441;51.344;7.022;2023-09-19T13:53:32;20.30;99.90
16655;DHT22;8441;51.344;7.022;2023-09-19T13:56:00;20.30;99.90
16655;DHT22;8441;51.344;7.022;2023-09-19T13:58:27;20.30;99.90
16655;DHT22;8441;51.344;7.022;2023-09-19T14:00:56;20.30;99.90
16655;DHT22;8441;51.344;7.022;2023-09-19T14:03:27;20.20;99.90
16655;DHT22;8441;51.344;7.022;2023-09-19T14:05:55;20.20;99.90
16655;DHT22;8441;51.344;7.022;2023-09-19T14:08:22;20.00;99.90
16655;DHT22;8441;51.344;7.022;2023-09-19T14:10:50;20.00;99.90
16655;DHT22;8441;51.344;7.022;2023-09-19T14:13:17;20.00;99.90
16655;DHT22;8441;51.344;7.022;2023-09-19T14:15:46;19.90;99.90
16655;DHT22;8441;51.344;7.022;2023-09-19T14:18:13;19.80;99.90
16655;DHT22;8441;51.344;7.022;2023-09-19T14:20:42;19.70;99.90
16655;DHT22;8441;51.344;7.022;2023-09-19T14:23:09;19.70;99.90
16655;DHT22;8441;51.344;7.022;2023-09-19T14:25:37;19.70;99.90
16655;DHT22;8441;51.344;7.022;2023-09-19T14:28:05;19.70;99.90
16655;DHT22;8441;51.344;7.022;2023-09-19T14:30:34;19.80;99.90
16655;DHT22;8441;51.344;7.022;2023-09-19T14:33:03;19.70;99.90
16655;DHT22;8441;51.344;7.022;2023-09-19T14:35:30;19.60;99.90
16655;DHT22;8441;51.344;7.022;2023-09-19T14:37:59;19.70;99.90
16655;DHT22;8441;51.344;7.022;2023-09-19T14:40:26;19.70;99.90
16655;DHT22;8441;51.344;7.022;2023-09-19T14:42:53;19.60;99.90
16655;DHT22;8441;51.344;7.022;2023-09-19T14:45:21;19.70;99.90
16655;DHT22;8441;51.344;7.022;2023-09-19T14:47:50;19.70;99.90
16655;DHT22;8441;51.344;7.022;2023-09-19T14:50:18;19.70;99.90
16655;DHT22;8441;51.344;7.022;2023-09-19T14:52:45;19.70;99.90
16655;DHT22;8441;51.344;7.022;2023-09-19T14:55:14;19.70;99.90
16655;DHT22;8441;51.344;7.022;2023-09-19T14:57:41;19.60;99.90
16655;DHT22;8441;51.344;7.022;2023-09-19T15:00:12;19.60;99.90
16655;DHT22;8441;51.344;7.022;2023-09-19T15:02:39;19.50;99.90
16655;DHT22;8441;51.344;7.022;2023-09-19T15:05:07;19.40;99.90
16655;DHT22;8441;51.344;7.022;2023-09-19T15:07:35;19.40;99.90
16655;DHT22;8441;51.344;7.022;2023-09-19T15:10:05;19.40;99.90
16655;DHT22;8441;51.344;7.022;2023-09-19T15:12:37;19.30;99.90
16655;DHT22;8441;51.344;7.022;2023-09-19T15:15:06;19.30;99.90
16655;DHT22;8441;51.344;7.022;2023-09-19T15:17:35;19.30;99.90
16655;DHT22;8441;51.344;7.022;2023-09-19T15:20:02;19.30;99.90
16655;DHT22;8441;51.344;7.022;2023-09-19T15:22:32;19.20;99.90
16655;DHT22;8441;51.344;7.022;2023-09-19T15:25:00;19.20;99.90
16655;DHT22;8441;51.344;7.022;2023-09-19T15:27:27;19.20;99.90
16655;DHT22;8441;51.344;7.022;2023-09-19T15:29:58;19.20;99.90
16655;DHT22;8441;51.344;7.022;2023-09-19T15:32:26;19.20;99.90
16655;DHT22;8441;51.344;7.022;2023-09-19T15:34:53;19.10;99.90
16655;DHT22;8441;51.344;7.022;2023-09-19T15:37:21;19.10;99.90
16655;DHT22;8441;51.344;7.022;2023-09-19T15:39:48;19.00;99.90
16655;DHT22;8441;51.344;7.022;2023-09-19T15:42:16;19.10;99.90
16655;DHT22;8441;51.344;7.022;2023-09-19T15:44:43;19.00;99.90
16655;DHT22;8441;51.344;7.022;2023-09-19T15:47:14;19.10;99.90
16655;DHT22;8441;51.344;7.022;2023-09-19T15:49:41;19.20;99.90
16655;DHT22;8441;51.344;7.022;2023-09-19T15:52:08;19.40;99.90
16655;DHT22;8441;51.344;7.022;2023-09-19T15:54:35;19.50;99.90
16655;DHT22;8441;51.344;7.022;2023-09-19T15:57:08;19.50;99.90
16655;DHT22;8441;51.344;7.022;2023-09-19T15:59:38;19.60;99.90
16655;DHT22;8441;51.344;7.022;2023-09-19T16:02:05;19.50;99.90
16655;DHT22;8441;51.344;7.022;2023-09-19T16:04:34;19.40;99.90
16655;DHT22;8441;51.344;7.022;2023-09-19T16:07:02;19.30;99.90